Terminal Aerodrome Forecast
Issued by NWS

Home | Current Version | Previous Version | Text Only | Print | Product List | Glossary On
Versions: 1 2 3 4 5 6 7 8 9 10 11 12 13
000
FTUS45 KRIW 271120
TAFBPI
TAF
KBPI 271120Z 2712/2812 VRB05KT 1 1/2SM -SN OVC014
      TEMPO 2712/2714 3/4SM -SN BKN007
     FM271800 24007KT P6SM VCSH SCT025 BKN050
     FM280000 34009KT 3SM -SHSN BKN025
     FM280300 31010KT P6SM FEW030 SCT060=

USA.gov is the U.S. government's official web portal to all federal, state and local government web resources and services.